Goodland, KS

7:21 PM MDT on July 06, 2015 (GMT -0600)
City of Gld Backyard Station | | Change Station
CLOSE
Current Station
Personal Weather Station
Location: Goodland, KS
Elevation: 3711 ft
Nearby Weather Stations

Elev 3711 ft 39.34 °N, 101.71 °W | Updated 52 seconds ago

Haze
Haze
70.2 °F
Feels Like 76 °F
N
4.7
Wind Variable Wind from NNE

Today
High -- | Low -- °F
--% Chance of Precip.
Yesterday
High -- | Low -- °F
Precip. -- in
5:26 AM 8:16 PM
Waning Gibbous, 70% visible
Pressure 30.03 in
Visibility 3.0 miles
Clouds Few 4000 ft
Scattered Clouds 5000 ft
Heat Index 76 °F
Dew Point 54 °F
Humidity 57%
Rainfall 0.00 in
Snow Depth Not available.
UV 1 out of 12
Pollen 3.60 out of 12
Air Quality Not available.
Flu Activity Not available.
METAR KGLD 070053Z AUTO 02014KT 3SM HZ FEW040 SCT050 21/12 A3013 RMK AO2 SLP168 T02110122

More Conditions Fewer Conditions

Pressure 30.03 in
Visibility 3.0 miles
Clouds Few 4000 ft
Scattered Clouds 5000 ft
Heat Index 76 °F
Dew Point 54 °F
Humidity 57%
Rainfall 0.00 in
Snow Depth Not available.
UV 1 out of 12
Pollen 3.60 out of 12
Air Quality Not available.
Flu Activity Not available.
METAR KGLD 070053Z AUTO 02014KT 3SM HZ FEW040 SCT050 21/12 A3013 RMK AO2 SLP168 T02110122

More Conditions Fewer Conditions

10-Day Weather Forecast

×

Almanac

Astronomy

Jul. 06, 2015 Rise Set
Actual Time
Civil Twilight
Nautical Twilight
Astronomical Twilight
Moon
Length of Visible Light
Length of Day
Tomorrow will be .
, % of the Moon is Illuminated

Today's Extremes

State Highs State Lows

Community

WunderPhotos

Upload Photos

1,835,689 photos uploaded!

WunderBlogs® & News

Nearby

Air Quality

  Air Quality AQ Index Pollutant
Not available.

Snow Depth

Station Depth Elevation

Earthquake Activity

City Distance Mag. Time & Date
Minimum magnitude displayed is 2.5.

Coastal Water Temperatures

Place Temperature

Stations

Nearby Weather Stations

Station Location Temp. Windchill Dew Point Humidity Wind Precip. Elev Updated Type